.
WxDataArchive / Data Records for 2008-05-17
2008-05-16 May 2008 2008-05-18

Data Records for Saturday, 17 May 2008

Time	Temp	Chill	HIndex	Humid	Dewpt	 Wind 	HiWind	WindDir	Rain 	Barom 
-----	----	-----	------	-----	-----	------	------	-------	-----	----- 
00:00	59.8	59.8	59.8	54	43.1	2	5	248	0.00	29.703 
00:05	59.8	59.8	59.8	54	43.1	2	6	248	0.00	29.700 
00:10	59.8	59.8	59.8	54	43.1	2	7	248	0.00	29.698 
00:15	59.8	59.8	59.8	54	43.1	2	6	248	0.00	29.698 
00:20	59.8	59.8	59.8	54	43.1	2	5	270	0.00	29.694 
00:25	59.9	59.9	59.9	54	43.2	2	6	270	0.00	29.690 
00:30	59.9	59.9	59.9	54	43.2	2	5	248	0.00	29.686 
00:35	59.9	59.9	59.9	54	43.2	2	6	248	0.00	29.684 
00:40	59.8	59.8	59.8	55	43.6	2	6	248	0.00	29.682 
00:45	59.8	59.8	59.8	55	43.6	2	6	248	0.00	29.678 
00:50	59.8	59.8	59.8	55	43.6	2	7	248	0.00	29.677 
00:55	59.9	59.9	59.9	55	43.7	2	6	225	0.00	29.673 
01:00	59.8	59.8	59.8	55	43.6	2	6	248	0.00	29.668 
01:05	59.6	59.6	59.6	56	43.9	2	7	248	0.00	29.667 
01:10	59.5	59.5	59.5	56	43.8	3	5	248	0.00	29.665 
01:15	59.5	59.5	59.5	56	43.8	3	9	248	0.00	29.659 
01:20	59.3	59.3	59.3	57	44.1	2	6	225	0.00	29.655 
01:25	59.3	59.3	59.3	57	44.1	2	6	270	0.00	29.653 
01:30	59.2	59.2	59.2	57	44.0	2	7	248	0.00	29.651 
01:35	59.0	59.0	59.0	57	43.8	2	7	248	0.00	29.649 
01:40	59.0	59.0	59.0	57	43.8	3	7	248	0.00	29.646 
01:45	59.0	59.0	59.0	57	43.8	3	6	270	0.00	29.639 
01:50	59.0	59.0	59.0	58	44.2	2	5	248	0.00	29.639 
01:55	58.9	58.9	58.9	58	44.1	2	6	270	0.00	29.639 
02:00	58.7	58.7	58.7	58	44.0	2	7	248	0.00	29.637 
02:05	58.7	58.7	58.7	58	44.0	3	5	248	0.00	29.636 
02:10	58.6	58.6	58.6	58	43.9	2	7	248	0.00	29.635 
02:15	58.4	58.4	58.4	59	44.1	1	6	248	0.00	29.631 
02:20	58.3	58.3	58.3	59	44.0	2	5	248	0.00	29.627 
02:25	58.3	58.3	58.3	59	44.0	2	5	248	0.00	29.625 
02:30	58.1	58.1	58.1	60	44.3	1	4	248	0.00	29.624 
02:35	58.1	58.1	58.1	60	44.3	2	5	248	0.00	29.623 
02:40	58.0	58.0	58.0	60	44.2	1	4	248	0.00	29.623 
02:45	57.8	57.8	57.8	61	44.4	1	3	270	0.00	29.621 
02:50	57.8	57.8	57.8	61	44.4	2	5	248	0.00	29.614 
02:55	57.8	57.8	57.8	61	44.4	1	6	248	0.00	29.610 
03:00	57.6	57.6	57.6	61	44.2	1	5	248	0.00	29.611 
03:05	57.8	57.8	57.8	61	44.4	3	7	248	0.00	29.606 
03:10	58.0	58.0	58.0	61	44.6	2	4	248	0.00	29.606 
03:15	57.8	57.8	57.8	61	44.4	2	7	270	0.00	29.605 
03:20	58.0	58.0	58.0	61	44.6	3	7	248	0.00	29.602 
03:25	58.0	58.0	58.0	62	45.1	1	6	248	0.00	29.597 
03:30	58.0	58.0	58.0	62	45.1	2	9	270	0.00	29.592 
03:35	58.1	58.1	58.1	62	45.1	2	6	248	0.00	29.590 
03:40	58.1	58.1	58.1	62	45.1	3	7	248	0.00	29.589 
03:45	58.1	58.1	58.1	62	45.1	2	4	248	0.00	29.589 
03:50	58.0	58.0	58.0	62	45.1	2	6	248	0.00	29.588 
03:55	58.1	58.1	58.1	62	45.1	2	6	248	0.00	29.584 
04:00	58.0	58.0	58.0	62	45.1	3	10	248	0.00	29.576 
04:05	58.0	58.0	58.0	63	45.5	2	6	270	0.00	29.573 
04:10	58.0	58.0	58.0	63	45.5	3	6	248	0.00	29.568 
04:15	57.8	57.8	57.8	63	45.3	2	8	270	0.00	29.567 
04:20	57.8	57.8	57.8	63	45.3	2	6	248	0.00	29.567 
04:25	57.8	57.8	57.8	64	45.7	1	6	248	0.00	29.564 
04:30	57.8	57.8	57.8	64	45.7	2	4	248	0.00	29.566 
04:35	58.0	58.0	58.0	63	45.5	2	7	248	0.00	29.561 
04:40	58.0	58.0	58.0	64	45.9	2	6	248	0.00	29.560 
04:45	57.8	57.8	57.8	64	45.7	2	5	248	0.00	29.558 
04:50	57.8	57.8	57.8	64	45.7	2	10	248	0.00	29.557 
04:55	57.8	57.8	57.8	64	45.7	2	4	248	0.00	29.555 
05:00	57.6	57.6	57.6	64	45.5	2	5	248	0.00	29.553 
05:05	57.6	57.6	57.6	64	45.5	2	5	248	0.00	29.556 
05:10	57.6	57.6	57.6	64	45.5	2	5	248	0.00	29.553 
05:15	57.5	57.5	57.5	64	45.4	2	5	248	0.00	29.552 
05:20	57.5	57.5	57.5	65	45.8	2	7	270	0.00	29.547 
05:25	57.5	57.5	57.5	65	45.8	1	3	270	0.00	29.548 
05:30	57.5	57.5	57.5	65	45.8	2	5	248	0.00	29.552 
05:35	57.6	57.6	57.6	64	45.5	2	11	248	0.00	29.553 
05:40	57.6	57.6	57.6	64	45.5	2	5	248	0.00	29.553 
05:45	57.6	57.6	57.6	65	45.9	2	4	248	0.00	29.548 
05:50	57.6	57.6	57.6	64	45.5	2	4	248	0.00	29.547 
05:55	57.6	57.6	57.6	65	45.9	1	4	248	0.00	29.549 
06:00	57.6	57.6	57.6	65	45.9	1	4	248	0.00	29.545 
06:05	57.6	57.6	57.6	65	45.9	1	6	248	0.00	29.551 
06:10	57.5	57.5	57.5	65	45.8	2	5	248	0.00	29.549 
06:15	57.6	57.6	57.6	65	45.9	2	6	248	0.00	29.547 
06:20	57.8	57.8	57.8	65	46.1	2	5	248	0.00	29.547 
06:25	57.8	57.8	57.8	65	46.1	1	4	248	0.00	29.547 
06:30	58.0	58.0	58.0	64	45.9	2	5	248	0.00	29.548 
06:35	58.0	58.0	58.0	65	46.3	2	5	270	0.00	29.545 
06:40	58.1	58.1	58.1	64	46.0	2	5	248	0.00	29.542 
06:45	58.1	58.1	58.1	64	46.0	1	5	248	0.00	29.543 
06:50	58.3	58.3	58.3	64	46.2	2	7	248	0.00	29.536 
06:55	58.6	58.6	58.6	63	46.0	3	5	248	0.00	29.541 
07:00	58.9	58.9	58.9	64	46.7	3	7	248	0.00	29.539 
07:05	58.6	58.6	58.6	65	46.9	2	5	248	0.00	29.539 
07:10	58.4	58.4	58.4	67	47.5	3	9	248	0.00	29.543 
07:15	57.8	57.8	57.8	69	47.7	2	5	270	0.01	29.533 
07:20	57.5	57.5	57.5	71	48.2	2	5	248	0.00	29.535 
07:25	57.6	57.6	57.6	69	47.5	3	9	270	0.00	29.532 
07:30	58.0	58.0	58.0	69	47.9	2	5	270	0.00	29.536 
07:35	58.0	58.0	58.0	69	47.9	2	9	248	0.00	29.534 
07:40	57.6	57.6	57.6	72	48.6	3	9	248	0.00	29.537 
07:45	57.3	57.3	57.3	72	48.3	2	10	248	0.00	29.533 
07:50	57.3	57.3	57.3	73	48.7	2	5	248	0.00	29.526 
07:55	57.2	57.2	57.2	74	49.0	2	5	248	0.00	29.533 
08:00	57.0	57.0	57.0	74	48.8	2	4	248	0.01	29.535 
08:05	57.2	57.2	57.2	74	49.0	2	4	248	0.00	29.533 
08:10	57.2	57.2	57.2	74	49.0	3	6	248	0.00	29.530 
08:15	57.3	57.3	57.3	74	49.1	3	7	248	0.00	29.530 
08:20	57.8	57.8	57.8	74	49.6	3	10	248	0.00	29.522 
08:25	58.9	58.9	58.9	72	49.9	3	9	248	0.00	29.527 
08:30	59.8	59.8	59.8	70	50.0	3	6	270	0.00	29.527 
08:35	60.4	60.4	60.4	70	50.6	3	6	270	0.00	29.524 
08:40	60.5	60.5	60.5	69	50.3	3	9	270	0.00	29.525 
08:45	60.4	60.4	60.4	69	50.2	3	9	270	0.00	29.522 
08:50	60.4	60.4	60.4	69	50.2	4	9	270	0.00	29.525 
08:55	61.2	61.2	61.2	67	50.2	4	11	270	0.00	29.518 
09:00	61.2	61.2	61.2	67	50.2	3	7	270	0.00	29.518 
09:05	61.5	61.5	61.5	68	50.8	3	6	270	0.00	29.517 
09:10	62.0	62.0	62.0	65	50.1	4	10	270	0.00	29.517 
09:15	62.3	62.3	62.3	65	50.4	4	11	270	0.00	29.522 
09:20	62.0	62.0	62.0	65	50.1	3	7	270	0.00	29.517 
09:25	61.6	61.6	61.6	65	49.7	4	12	248	0.00	29.517 
09:30	61.8	61.8	61.8	65	49.9	4	10	270	0.00	29.516 
09:35	62.1	62.1	62.1	66	50.6	3	9	248	0.00	29.515 
09:40	62.3	62.3	62.3	64	50.0	4	10	270	0.00	29.514 
09:45	62.3	62.3	62.3	64	50.0	4	10	270	0.00	29.513 
09:50	62.6	62.6	62.6	64	50.2	4	12	270	0.00	29.510 
09:55	63.1	63.1	63.1	64	50.7	3	8	270	0.00	29.512 
10:00	63.4	63.4	63.4	64	51.0	4	13	270	0.00	29.510 
10:05	63.9	63.9	63.9	63	51.1	3	7	248	0.00	29.508 
10:10	64.7	64.7	64.7	64	52.2	2	5	270	0.00	29.506 
10:15	65.0	65.0	65.0	62	51.7	5	12	270	0.00	29.510 
10:20	65.5	65.5	65.5	60	51.2	4	7	270	0.00	29.507 
10:25	65.6	65.6	65.6	59	50.9	4	8	270	0.00	29.507 
10:30	66.3	66.3	66.3	61	52.4	3	9	270	0.00	29.506 
10:35	66.8	66.8	66.8	60	52.5	3	7	270	0.00	29.507 
10:40	67.3	67.3	67.3	56	51.1	3	6	248	0.00	29.507 
10:45	67.6	67.6	67.6	58	52.3	3	6	270	0.00	29.504 
10:50	67.6	67.6	67.6	54	50.4	4	11	270	0.00	29.504 
10:55	67.3	67.3	67.3	55	50.6	3	10	270	0.00	29.509 
11:00	67.1	67.1	67.1	52	48.9	3	7	270	0.00	29.509 
11:05	67.3	67.3	67.3	53	49.6	3	7	315	0.00	29.509 
11:10	67.3	67.3	67.3	51	48.5	4	11	270	0.00	29.510 
11:15	67.4	67.4	67.4	52	49.2	3	9	270	0.00	29.509 
11:20	67.8	67.8	67.8	52	49.5	3	6	292	0.00	29.507 
11:25	68.1	68.1	68.1	53	50.3	2	5	270	0.00	29.505 
11:30	68.3	68.3	68.3	49	48.4	2	11	292	0.00	29.505 
11:35	68.8	68.8	68.8	50	49.4	2	6	248	0.00	29.504 
11:40	68.9	68.9	68.9	46	47.3	3	11	270	0.00	29.507 
11:45	68.8	68.8	68.8	40	43.5	4	10	270	0.00	29.509 
11:50	68.9	68.9	68.9	39	42.9	5	12	270	0.00	29.509 
11:55	68.9	68.9	68.9	36	40.8	4	16	292	0.00	29.509 
12:00	68.8	68.8	68.8	32	37.7	5	9	270	0.00	29.510 
12:05	68.8	68.8	68.8	35	40.0	5	11	270	0.00	29.510 
12:10	68.9	68.9	68.9	37	41.5	5	11	270	0.00	29.510 
12:15	69.1	69.1	69.1	37	41.7	5	10	270	0.00	29.511 
12:20	69.3	69.3	69.3	35	40.5	4	8	270	0.00	29.511 
12:25	69.4	69.4	69.4	38	42.7	3	7	315	0.00	29.512 
12:30	69.9	69.9	69.9	36	41.7	3	7	270	0.00	29.508 
12:35	69.9	69.9	69.9	35	41.0	4	7	315	0.00	29.510 
12:40	69.4	69.4	69.4	35	40.6	3	6	292	0.00	29.512 
12:45	69.4	69.4	69.4	36	41.3	4	9	270	0.00	29.513 
12:50	69.1	69.1	69.1	35	40.3	4	7	270	0.00	29.512 
12:55	69.4	69.4	69.4	37	42.0	3	6	270	0.00	29.510 
13:00	69.6	69.6	69.6	35	40.7	5	10	270	0.00	29.510 
13:05	69.6	69.6	69.6	35	40.7	3	6	270	0.00	29.510 
13:10	69.8	69.8	69.8	36	41.6	4	7	270	0.00	29.511 
13:15	69.6	69.6	69.6	35	40.7	5	10	270	0.00	29.511 
13:20	69.6	69.6	69.6	35	40.7	3	6	292	0.00	29.510 
13:25	69.3	69.3	69.3	30	36.5	4	11	315	0.00	29.515 
13:30	69.4	69.4	69.4	34	39.8	4	7	315	0.00	29.512 
13:35	69.4	69.4	69.4	33	39.0	5	11	270	0.00	29.516 
13:40	68.9	68.9	68.9	33	38.6	5	10	315	0.00	29.518 
13:45	68.9	68.9	68.9	32	37.8	4	7	292	0.00	29.520 
13:50	68.6	68.6	68.6	30	35.9	4	11	315	0.00	29.524 
13:55	68.8	68.8	68.8	32	37.7	3	7	315	0.00	29.521 
14:00	69.3	69.3	69.3	34	39.7	4	9	270	0.00	29.521 
14:05	69.1	69.1	69.1	31	37.2	4	11	270	0.00	29.526 
14:10	69.3	69.3	69.3	31	37.4	4	10	270	0.00	29.527 
14:15	68.4	68.4	68.4	28	34.0	6	13	292	0.00	29.527 
14:20	68.3	68.3	68.3	29	34.8	5	13	315	0.00	29.528 
14:25	68.6	68.6	68.6	28	34.2	4	10	270	0.00	29.528 
14:30	68.4	68.4	68.4	28	34.0	5	13	315	0.00	29.530 
14:35	68.4	68.4	68.4	27	33.1	5	12	292	0.00	29.536 
14:40	68.6	68.6	68.6	31	36.8	5	11	270	0.00	29.531 
14:45	68.6	68.6	68.6	28	34.2	4	11	292	0.00	29.538 
14:50	68.6	68.6	68.6	29	35.1	4	11	315	0.00	29.540 
14:55	68.6	68.6	68.6	28	34.2	4	10	315	0.00	29.536 
15:00	68.3	68.3	68.3	30	35.7	4	10	315	0.00	29.538 
15:05	68.1	68.1	68.1	30	35.5	4	12	270	0.00	29.538 
15:10	68.1	68.1	68.1	32	37.1	5	11	270	0.00	29.541 
15:15	67.9	67.9	67.9	33	37.7	4	9	315	0.00	29.542 
15:20	68.1	68.1	68.1	32	37.1	4	10	315	0.00	29.543 
15:25	68.4	68.4	68.4	31	36.6	3	7	315	0.00	29.541 
15:30	68.3	68.3	68.3	35	39.6	4	10	315	0.00	29.542 
15:35	68.1	68.1	68.1	35	39.4	3	6	315	0.00	29.541 
15:40	68.3	68.3	68.3	33	38.1	4	7	315	0.00	29.541 
15:45	68.3	68.3	68.3	33	38.1	4	9	270	0.00	29.539 
15:50	67.9	67.9	67.9	32	36.9	4	10	292	0.00	29.540 
15:55	68.3	68.3	68.3	36	40.3	3	12	292	0.00	29.540 
16:00	68.9	68.9	68.9	32	37.8	4	7	270	0.00	29.542 
16:05	68.6	68.6	68.6	31	36.8	4	9	315	0.00	29.543 
16:10	68.3	68.3	68.3	31	36.5	4	10	292	0.00	29.542 
16:15	68.6	68.6	68.6	31	36.8	3	7	270	0.00	29.541 
16:20	68.6	68.6	68.6	33	38.3	3	6	270	0.00	29.543 
16:25	68.9	68.9	68.9	32	37.8	3	9	292	0.00	29.542 
16:30	68.8	68.8	68.8	29	35.2	3	9	315	0.00	29.544 
16:35	68.8	68.8	68.8	27	33.5	4	12	270	0.00	29.545 
16:40	68.6	68.6	68.6	30	35.9	2	6	270	0.00	29.545 
16:45	68.3	68.3	68.3	29	34.8	3	9	315	0.00	29.547 
16:50	67.9	67.9	67.9	29	34.5	3	6	270	0.00	29.547 
16:55	67.8	67.8	67.8	30	35.2	2	7	292	0.00	29.546 
17:00	67.8	67.8	67.8	28	33.5	2	10	270	0.00	29.549 
17:05	67.6	67.6	67.6	28	33.3	3	7	315	0.00	29.552 
17:10	67.4	67.4	67.4	29	34.0	2	5	315	0.00	29.556 
17:15	67.4	67.4	67.4	30	34.9	2	6	270	0.00	29.551 
17:20	67.6	67.6	67.6	32	36.7	2	3	292	0.00	29.550 
17:25	67.6	67.6	67.6	31	35.9	1	4	315	0.00	29.551 
17:30	67.6	67.6	67.6	28	33.3	3	7	270	0.00	29.550 
17:35	67.8	67.8	67.8	31	36.1	2	7	338	0.00	29.544 
17:40	67.9	67.9	67.9	28	33.6	2	4	292	0.00	29.544 
17:45	67.9	67.9	67.9	28	33.6	2	7	292	0.00	29.546 
17:50	67.9	67.9	67.9	27	32.7	2	6	270	0.00	29.546 
17:55	67.8	67.8	67.8	29	34.4	1	4	270	0.00	29.547 
18:00	67.6	67.6	67.6	28	33.3	2	5	270	0.00	29.550 
18:05	67.3	67.3	67.3	28	33.1	2	5	292	0.00	29.552 
18:10	67.3	67.3	67.3	27	32.2	3	6	292	0.00	29.546 
18:15	67.1	67.1	67.1	28	32.9	2	6	292	0.00	29.547 
18:20	67.1	67.1	67.1	27	32.0	2	6	270	0.00	29.549 
18:25	66.9	66.9	66.9	28	32.7	2	6	292	0.00	29.551 
18:30	66.9	66.9	66.9	27	31.8	2	7	270	0.00	29.551 
18:35	66.8	66.8	66.8	28	32.6	1	4	315	0.00	29.552 
18:40	66.6	66.6	66.6	28	32.5	0	1	315	0.00	29.553 
18:45	66.4	66.4	66.4	30	34.0	0	2	315	0.00	29.556 
18:50	66.4	66.4	66.4	29	33.2	0	1	315	0.00	29.559 
18:55	66.3	66.3	66.3	31	34.8	0	1	315	0.00	29.560 
19:00	66.3	66.3	66.3	30	33.9	0	1	315	0.00	29.561 
19:05	66.1	66.1	66.1	31	34.6	0	1	315	0.00	29.563 
19:10	66.0	66.0	66.0	32	35.3	0	1	315	0.00	29.563 
19:15	65.8	65.8	65.8	32	35.1	0	1	315	0.00	29.563 
19:20	65.5	65.5	65.5	32	34.9	0	1	315	0.00	29.563 
19:25	65.3	65.3	65.3	34	36.2	0	1	315	0.00	29.562 
19:30	65.0	65.0	65.0	35	36.7	0	0	---	0.00	29.560 
19:35	64.8	64.8	64.8	35	36.5	0	0	---	0.00	29.560 
19:40	64.3	64.3	64.3	36	36.8	0	0	---	0.00	29.561 
19:45	64.0	64.0	64.0	36	36.5	0	0	---	0.00	29.562 
19:50	63.7	63.7	63.7	37	36.9	0	0	---	0.00	29.560 
19:55	63.4	63.4	63.4	41	39.3	0	0	---	0.00	29.558 
20:00	62.9	62.9	62.9	42	39.5	0	0	---	0.00	29.552 
20:05	62.4	62.4	62.4	44	40.2	0	0	---	0.00	29.546 
20:10	62.0	62.0	62.0	45	40.4	0	0	---	0.00	29.545 
20:15	61.5	61.5	61.5	47	41.1	0	0	---	0.00	29.543 
20:20	61.0	61.0	61.0	47	40.6	0	0	---	0.00	29.540 
20:25	60.7	60.7	60.7	48	40.9	0	0	---	0.00	29.535 
20:30	60.4	60.4	60.4	48	40.6	0	0	---	0.00	29.534 
20:35	60.1	60.1	60.1	47	39.8	0	0	---	0.00	29.533 
20:40	59.9	59.9	59.9	52	42.2	0	0	---	0.00	29.529 
20:45	59.6	59.6	59.6	51	41.4	0	0	---	0.00	29.520 
20:50	59.5	59.5	59.5	50	40.8	0	0	---	0.00	29.515 
20:55	59.5	59.5	59.5	52	41.9	0	0	---	0.00	29.515 
21:00	59.5	59.5	59.5	52	41.9	0	2	315	0.00	29.509 
21:05	59.6	59.6	59.6	53	42.4	0	2	315	0.00	29.513 
21:10	59.8	59.8	59.8	53	42.6	0	1	315	0.00	29.516 
21:15	59.8	59.8	59.8	51	41.6	0	3	248	0.00	29.523 
21:20	60.5	60.5	60.5	47	40.2	2	7	248	0.00	29.530 
21:25	62.4	62.4	62.4	39	37.1	2	4	270	0.00	29.538 
21:30	63.1	63.1	63.1	40	38.4	1	6	292	0.00	29.543 
21:35	61.5	61.5	61.5	47	41.1	2	4	315	0.00	29.556 
21:40	59.9	59.9	59.9	52	42.2	1	3	292	0.00	29.554 
21:45	58.9	58.9	58.9	57	43.7	1	3	270	0.00	29.563 
21:50	58.1	58.1	58.1	58	43.4	1	2	292	0.00	29.564 
21:55	57.8	57.8	57.8	59	43.6	1	4	315	0.00	29.567 
22:00	57.2	57.2	57.2	64	45.1	0	3	315	0.01	29.562 
22:05	56.3	56.3	56.3	65	44.7	0	2	292	0.00	29.562 
22:10	55.7	55.7	55.7	68	45.3	0	2	292	0.00	29.570 
22:15	55.4	55.4	55.4	69	45.4	0	1	292	0.01	29.566 
22:20	55.0	55.0	55.0	72	46.1	0	1	292	0.00	29.574 
22:25	54.7	54.7	54.7	72	45.9	0	1	292	0.00	29.573 
22:30	54.5	54.5	54.5	73	46.0	0	1	292	0.00	29.571 
22:35	54.4	54.4	54.4	75	46.6	0	1	292	0.00	29.571 
22:40	54.1	54.1	54.1	75	46.4	0	2	292	0.00	29.565 
22:45	53.9	53.9	53.9	76	46.5	0	2	292	0.01	29.568 
22:50	53.6	53.6	53.6	78	46.9	0	2	292	0.00	29.574 
22:55	53.3	53.3	53.3	79	47.0	0	2	292	0.00	29.571 
23:00	53.1	53.1	53.1	81	47.4	0	3	292	0.01	29.555 
23:05	52.6	52.6	52.6	83	47.6	0	2	292	0.00	29.551 
23:10	52.3	52.3	52.3	84	47.6	0	2	292	0.00	29.554 
23:15	52.2	52.2	52.2	85	47.8	0	4	270	0.00	29.561 
23:20	52.0	52.0	52.0	86	47.9	0	1	270	0.00	29.538 
23:25	51.7	51.7	51.7	86	47.6	1	3	315	0.00	29.522 
23:30	51.7	51.7	51.7	86	47.6	0	1	338	0.00	29.530 
23:35	51.6	51.6	51.6	87	47.9	0	1	338	0.01	29.527 
23:40	51.4	51.4	51.4	88	48.0	0	1	338	0.00	29.538 
23:45	51.4	51.4	51.4	88	48.0	1	3	315	0.00	29.551 
23:50	51.6	51.6	51.6	88	48.2	0	2	315	0.00	29.548 
23:55	51.4	51.4	51.4	88	48.0	0	1	315	0.00	29.545 

CoCoRaHS
IN-AL-39
A2 Web Hosting
Creative Commons License
GoDaddy
Look for:

loaded 2017-12-13 19:58:21 • last modified 2010-11-18 10:43:29
Privacy PolicyDisclaimer
• wx.awcolley.com is powered by PmWiki v.2002016 •
• all content (unless otherwise noted) © 2017 A W Colley